Time;durP1;ratioP1;P1;durP2;ratioP2;P2;SDS_P1;SDS_P2;PMS_P1;PMS_P2;Temp;Humidity;BMP_temperature;BMP_pressure;BME280_temperature;BME280_humidity;BME280_pressure;Samples;Min_cycle;Max_cycle;Signal;HPM_P1;HPM_P2
2024/02/12 00:02:02;;;;;;;4.18;2.70;;;;;;;4.31;100.00;95742.78;5040114;28;20403;-79
2024/02/12 00:04:28;;;;;;;4.07;2.40;;;;;;;4.27;100.00;95745.13;5039607;28;20403;-79
2024/02/12 00:06:57;;;;;;;3.88;2.40;;;;;;;4.24;100.00;95754.28;5039511;28;20470;-79
2024/02/12 00:09:24;;;;;;;3.85;2.45;;;;;;;4.23;100.00;95752.69;5039561;28;20958;-80
2024/02/12 00:11:53;;;;;;;4.97;2.75;;;;;;;4.21;100.00;95754.00;5040095;28;20395;-79
2024/02/12 00:14:24;;;;;;;3.47;2.50;;;;;;;4.20;100.00;95758.44;5039998;28;20418;-82
2024/02/12 00:16:50;;;;;;;3.83;2.72;;;;;;;4.19;100.00;95756.84;5040339;28;20419;-77
2024/02/12 00:19:17;;;;;;;3.97;2.40;;;;;;;4.23;100.00;95754.50;5041533;28;20943;-80
2024/02/12 00:21:45;;;;;;;5.60;2.85;;;;;;;4.29;100.00;95754.28;5041429;28;20438;-79
2024/02/12 00:24:11;;;;;;;4.30;2.85;;;;;;;4.36;100.00;95756.69;5042291;28;20402;-81
2024/02/12 00:26:40;;;;;;;4.60;2.65;;;;;;;4.42;100.00;95755.72;5041427;28;20407;-79
2024/02/12 00:29:08;;;;;;;3.35;2.30;;;;;;;4.48;100.00;95753.91;5041339;28;20422;-82
2024/02/12 00:31:34;;;;;;;5.10;2.60;;;;;;;4.49;100.00;95751.03;5042378;28;20437;-83
2024/02/12 00:34:01;;;;;;;4.60;2.17;;;;;;;4.52;100.00;95752.34;5048739;28;20395;-80
2024/02/12 00:36:28;;;;;;;2.60;2.25;;;;;;;4.53;100.00;95752.09;5047308;28;20403;-80
2024/02/12 00:38:54;;;;;;;4.10;2.20;;;;;;;4.55;100.00;95760.50;5052408;28;20391;-80
2024/02/12 00:41:22;;;;;;;3.83;2.25;;;;;;;4.56;100.00;95756.84;5045808;28;20798;-78
2024/02/12 00:43:51;;;;;;;5.18;2.53;;;;;;;4.59;100.00;95761.56;5042787;28;20402;-80
2024/02/12 00:46:18;;;;;;;5.07;2.30;;;;;;;4.62;100.00;95761.09;5042320;28;20402;-78
2024/02/12 00:48:45;;;;;;;4.85;2.28;;;;;;;4.63;100.00;95757.41;5041576;28;20737;-80
2024/02/12 00:51:12;;;;;;;2.90;2.17;;;;;;;4.64;100.00;95758.22;5042655;28;20458;-80
2024/02/12 00:53:40;;;;;;;2.63;2.10;;;;;;;4.65;100.00;95760.59;5043261;28;20435;-79
2024/02/12 00:56:06;;;;;;;4.65;2.40;;;;;;;4.65;100.00;95762.41;5043079;28;20485;-80
2024/02/12 00:58:33;;;;;;;4.78;2.20;;;;;;;4.64;100.00;95766.06;5042819;28;20403;-81
2024/02/12 01:00:59;;;;;;;3.55;2.30;;;;;;;4.60;100.00;95757.91;5043471;28;20426;-80
2024/02/12 01:03:26;;;;;;;5.80;2.60;;;;;;;4.51;100.00;95763.91;5044354;28;20441;-80
2024/02/12 01:05:53;;;;;;;4.53;2.38;;;;;;;4.43;100.00;95767.00;5044203;28;20395;-79
2024/02/12 01:08:20;;;;;;;3.22;2.20;;;;;;;4.29;100.00;95767.38;5044181;28;20399;-80
2024/02/12 01:10:48;;;;;;;2.47;1.92;;;;;;;4.20;100.00;95768.91;5043597;28;20911;-80
2024/02/12 01:13:14;;;;;;;3.20;2.10;;;;;;;4.12;100.00;95766.75;5044646;28;20423;-80
2024/02/12 01:15:40;;;;;;;3.92;1.90;;;;;;;4.10;100.00;95770.66;5043715;28;20438;-79
2024/02/12 01:18:07;;;;;;;3.17;2.17;;;;;;;4.09;100.00;95772.47;5044384;28;20394;-79
2024/02/12 01:20:34;;;;;;;2.05;1.85;;;;;;;4.05;100.00;95771.41;5044337;28;20494;-80
2024/02/12 01:23:00;;;;;;;4.20;2.50;;;;;;;4.01;100.00;95778.16;5043526;28;20445;-80
2024/02/12 01:25:26;;;;;;;3.25;2.10;;;;;;;3.98;100.00;95776.06;5043741;28;20445;-80
2024/02/12 01:27:54;;;;;;;2.72;2.10;;;;;;;3.98;100.00;95770.81;5043712;28;20400;-80
2024/02/12 01:30:20;;;;;;;3.33;2.10;;;;;;;3.94;100.00;95774.16;5042829;28;20415;-80
2024/02/12 01:32:46;;;;;;;3.40;2.40;;;;;;;3.89;100.00;95767.88;5043114;28;20872;-80
2024/02/12 01:35:13;;;;;;;2.75;2.05;;;;;;;3.84;100.00;95774.84;5043528;28;20403;-80
2024/02/12 01:37:39;;;;;;;3.05;2.15;;;;;;;3.77;100.00;95775.06;5042829;28;20435;-80
2024/02/12 01:40:08;;;;;;;2.63;2.10;;;;;;;3.69;100.00;95778.13;5043546;28;20414;-81
2024/02/12 01:42:35;;;;;;;4.47;2.30;;;;;;;3.63;100.00;95779.09;5043216;28;20406;-80
2024/02/12 01:45:16;;;;;;;2.97;2.33;;;;;;;3.60;100.00;95784.84;5039786;28;20869;-81
2024/02/12 01:47:43;;;;;;;3.97;2.25;;;;;;;3.55;100.00;95784.78;5039193;28;20395;-81
2024/02/12 01:50:12;;;;;;;2.88;1.92;;;;;;;3.53;100.00;95780.84;5022843;28;20431;-80
2024/02/12 01:52:39;;;;;;;3.53;2.40;;;;;;;3.53;100.00;95779.03;5040934;28;20468;-80
2024/02/12 01:55:06;;;;;;;5.88;2.30;;;;;;;3.59;100.00;95779.84;5041566;28;20395;-81
2024/02/12 01:57:35;;;;;;;3.13;2.10;;;;;;;3.66;100.00;95778.63;5041082;28;20760;-80
2024/02/12 02:00:05;;;;;;;3.03;2.10;;;;;;;3.70;100.00;95779.72;5040918;28;20398;-80
2024/02/12 02:02:33;;;;;;;2.97;2.30;;;;;;;3.75;100.00;95781.59;5040855;28;20446;-81
2024/02/12 02:05:00;;;;;;;2.50;1.90;;;;;;;3.78;100.00;95781.88;5041044;28;20414;-80
2024/02/12 02:07:27;;;;;;;4.68;2.40;;;;;;;3.83;100.00;95781.16;5040319;28;20398;-79
2024/02/12 02:09:53;;;;;;;5.35;3.00;;;;;;;3.89;100.00;95783.56;5038636;28;20502;-79
2024/02/12 02:12:20;;;;;;;6.00;2.92;;;;;;;3.98;100.00;95786.53;5038528;28;20391;-80
2024/02/12 02:14:46;;;;;;;4.90;2.75;;;;;;;4.03;100.00;95783.94;5038813;28;20399;-80
2024/02/12 02:17:13;;;;;;;6.55;2.72;;;;;;;4.12;100.00;95795.56;5039047;28;20423;-80
2024/02/12 02:19:40;;;;;;;5.30;2.67;;;;;;;4.20;100.00;95789.88;5039376;28;20490;-81
2024/02/12 02:22:08;;;;;;;4.18;2.35;;;;;;;4.29;100.00;95793.59;5039559;28;20430;-80
2024/02/12 02:24:35;;;;;;;4.55;2.45;;;;;;;4.38;100.00;95790.50;5039562;28;20406;-79
2024/02/12 02:27:01;;;;;;;6.70;2.75;;;;;;;4.39;100.00;95794.72;5039538;28;20471;-80
2024/02/12 02:29:27;;;;;;;5.33;2.73;;;;;;;4.48;100.00;95798.44;5039037;28;20415;-80
2024/02/12 02:31:54;;;;;;;4.72;2.75;;;;;;;4.52;100.00;95797.69;5037194;28;20396;-79
2024/02/12 02:34:20;;;;;;;7.73;2.90;;;;;;;4.52;100.00;95796.91;5036522;28;20406;-80
2024/02/12 02:36:46;;;;;;;5.35;2.85;;;;;;;4.53;100.00;95791.41;5037066;28;20395;-80
2024/02/12 02:39:13;;;;;;;5.88;2.70;;;;;;;4.58;100.00;95790.66;5036089;28;20899;-81
2024/02/12 02:41:45;;;;;;;4.22;2.30;;;;;;;4.58;100.00;95790.66;5036366;28;20741;-80
2024/02/12 02:44:12;;;;;;;6.03;2.40;;;;;;;4.69;100.00;95789.69;5036669;28;20872;-80
2024/02/12 02:46:38;;;;;;;5.67;2.30;;;;;;;4.73;100.00;95785.53;5037027;28;20402;-80
2024/02/12 02:49:04;;;;;;;2.92;2.20;;;;;;;4.77;100.00;95794.44;5036556;28;20934;-80
2024/02/12 02:51:30;;;;;;;5.07;2.50;;;;;;;4.78;100.00;95792.63;5036316;28;20764;-81
2024/02/12 02:53:57;;;;;;;5.45;2.42;;;;;;;4.75;100.00;95795.75;5038142;28;20395;-81
2024/02/12 02:56:23;;;;;;;5.55;2.15;;;;;;;4.77;100.00;95799.69;5040138;28;20768;-80
2024/02/12 02:58:51;;;;;;;2.47;2.08;;;;;;;4.79;100.00;95800.25;5042743;28;20407;-80
2024/02/12 03:01:21;;;;;;;5.87;2.70;;;;;;;4.81;100.00;95810.47;5048072;28;20493;-81
2024/02/12 03:03:50;;;;;;;3.30;1.95;;;;;;;4.86;100.00;95806.06;5049041;28;20414;-79
2024/02/12 03:06:16;;;;;;;3.25;1.80;;;;;;;4.89;100.00;95809.97;5049569;28;20395;-81
2024/02/12 03:08:42;;;;;;;3.58;1.90;;;;;;;4.90;100.00;95812.34;5049930;28;20426;-81
2024/02/12 03:11:08;;;;;;;3.80;2.00;;;;;;;4.96;100.00;95818.44;5051037;28;20390;-81
2024/02/12 03:13:37;;;;;;;2.95;1.90;;;;;;;4.89;100.00;95818.63;5053476;28;20398;-80
2024/02/12 03:16:05;;;;;;;5.03;1.90;;;;;;;4.90;100.00;95819.41;5046538;28;20895;-80
2024/02/12 03:18:31;;;;;;;4.22;1.92;;;;;;;4.94;100.00;95823.94;5047057;28;20839;-79
2024/02/12 03:20:57;;;;;;;3.10;2.00;;;;;;;5.01;100.00;95829.75;5046387;28;20399;-79
2024/02/12 03:23:23;;;;;;;2.25;1.80;;;;;;;5.04;100.00;95838.91;5045959;28;20460;-81
2024/02/12 03:25:50;;;;;;;1.80;1.70;;;;;;;5.09;100.00;95832.91;5046592;28;20407;-80
2024/02/12 03:28:16;;;;;;;2.20;1.80;;;;;;;5.12;100.00;95830.56;5046483;28;20391;-80
2024/02/12 03:30:42;;;;;;;3.17;1.57;;;;;;;5.14;100.00;95835.56;5047093;28;20498;-80
2024/02/12 03:33:10;;;;;;;4.65;1.85;;;;;;;5.09;100.00;95844.19;5047048;28;20477;-80
2024/02/12 03:35:36;;;;;;;3.55;1.88;;;;;;;5.10;100.00;95843.16;5046465;28;20461;-79
2024/02/12 03:38:02;;;;;;;6.18;2.13;;;;;;;5.09;100.00;95846.03;5048108;28;20410;-80
2024/02/12 03:40:28;;;;;;;3.15;2.08;;;;;;;5.05;100.00;95849.16;5048058;28;20458;-80
2024/02/12 03:42:54;;;;;;;3.33;2.30;;;;;;;5.04;100.00;95855.44;5047806;28;20545;-79
2024/02/12 03:45:21;;;;;;;3.70;2.05;;;;;;;5.11;100.00;95851.81;5046346;28;20896;-79
2024/02/12 03:47:49;;;;;;;6.40;2.20;;;;;;;5.05;100.00;95853.59;5047214;28;20417;-80
2024/02/12 04:01:21;;;;;;;2.40;1.85;;;;;;;4.86;100.00;95863.72;5047177;28;20972;-79
2024/02/12 04:03:49;;;;;;;2.92;1.95;;;;;;;4.82;100.00;95865.25;5048001;28;20395;-79
2024/02/12 04:06:16;;;;;;;2.40;1.90;;;;;;;4.80;100.00;95880.47;5047376;28;20429;-78
2024/02/12 04:08:43;;;;;;;2.87;1.80;;;;;;;4.73;100.00;95877.25;5048485;28;20737;-78
2024/02/12 04:11:09;;;;;;;1.75;1.60;;;;;;;4.66;100.00;95877.44;5045313;28;20399;-82
2024/02/12 04:13:35;;;;;;;2.40;1.90;;;;;;;4.62;100.00;95878.22;5045797;28;20405;-80
2024/02/12 04:16:02;;;;;;;3.67;1.92;;;;;;;4.58;100.00;95879.75;5046297;28;20390;-79
2024/02/12 04:18:31;;;;;;;1.80;1.70;;;;;;;4.58;100.00;95885.00;5045716;28;20442;-79
2024/02/12 04:20:59;;;;;;;2.70;1.90;;;;;;;4.56;100.00;95887.06;5045683;28;20442;-80
2024/02/12 04:23:27;;;;;;;2.20;1.80;;;;;;;4.55;100.00;95888.91;5045604;28;20395;-80
2024/02/12 04:25:54;;;;;;;3.63;1.83;;;;;;;4.54;100.00;95894.38;5045534;28;20406;-79
2024/02/12 04:28:21;;;;;;;2.95;1.70;;;;;;;4.53;100.00;95898.03;5045614;28;20403;-80
2024/02/12 04:30:47;;;;;;;2.55;1.75;;;;;;;4.47;100.00;95899.84;5045725;28;20442;-79
2024/02/12 04:33:16;;;;;;;1.88;1.60;;;;;;;4.39;100.00;95909.97;5046283;28;20400;-79
2024/02/12 04:35:44;;;;;;;2.38;1.73;;;;;;;4.34;100.00;95907.31;5045502;28;20442;-80
2024/02/12 04:38:10;;;;;;;2.75;1.80;;;;;;;4.28;100.00;95917.72;5045889;28;20399;-79
2024/02/12 04:40:37;;;;;;;3.50;2.00;;;;;;;4.28;100.00;95916.97;5046207;28;20780;-81
2024/02/12 04:43:04;;;;;;;4.18;2.00;;;;;;;4.27;100.00;95913.53;5045582;28;20453;-82
2024/02/12 04:45:30;;;;;;;6.60;2.40;;;;;;;4.28;100.00;95922.97;5045264;28;20440;-82
2024/02/12 04:47:56;;;;;;;6.87;2.80;;;;;;;4.32;100.00;95923.28;5045508;28;20395;-82
2024/02/12 04:50:23;;;;;;;6.10;2.50;;;;;;;4.38;100.00;95926.72;5046916;28;20458;-82
2024/02/12 04:52:49;;;;;;;3.50;2.15;;;;;;;4.47;100.00;95927.88;5046678;28;20425;-81
2024/02/12 04:55:15;;;;;;;3.77;2.20;;;;;;;4.51;100.00;95929.72;5045823;28;20431;-82
2024/02/12 04:57:43;;;;;;;4.20;2.35;;;;;;;4.49;100.00;95936.28;5046009;28;20399;-82
2024/02/12 05:00:10;;;;;;;6.30;2.40;;;;;;;4.46;100.00;95931.50;5047053;28;20423;-82
2024/02/12 05:02:37;;;;;;;6.00;2.63;;;;;;;4.38;100.00;95931.97;5047521;28;20395;-82
2024/02/12 05:05:05;;;;;;;4.65;2.20;;;;;;;4.32;100.00;95927.72;5046574;28;20395;-82
2024/02/12 05:07:32;;;;;;;5.32;2.28;;;;;;;4.24;100.00;95928.94;5047510;28;20395;-82
2024/02/12 05:09:58;;;;;;;5.53;2.80;;;;;;;4.13;100.00;95924.66;5047915;28;20440;-82
2024/02/12 05:12:24;;;;;;;4.70;2.47;;;;;;;4.05;100.00;95925.09;5056552;28;20403;-81
2024/02/12 05:14:52;;;;;;;2.88;2.20;;;;;;;3.98;100.00;95934.97;5056697;28;20486;-81
2024/02/12 05:17:28;;;;;;;3.05;2.30;;;;;;;3.89;100.00;95937.22;5051281;28;20407;-81
2024/02/12 05:22:40;;;;;;;5.35;2.33;;;;;;;3.67;100.00;95949.50;5046822;28;20403;-81
2024/02/12 05:25:07;;;;;;;12.70;3.40;;;;;;;3.62;100.00;95952.81;5048827;28;20554;-81
2024/02/12 05:27:33;;;;;;;3.73;2.70;;;;;;;3.59;100.00;95955.16;5050230;28;20460;-78
2024/02/12 05:30:01;;;;;;;4.05;2.58;;;;;;;3.56;100.00;95959.03;5049937;28;20434;-81
2024/02/12 05:32:28;;;;;;;5.88;2.63;;;;;;;3.54;100.00;95960.28;5050116;28;20398;-79
2024/02/12 05:34:55;;;;;;;4.55;2.50;;;;;;;3.50;100.00;95960.78;5031940;28;20411;-79
2024/02/12 05:37:22;;;;;;;4.23;2.20;;;;;;;3.49;100.00;95964.44;5049212;28;20395;-82
2024/02/12 05:39:48;;;;;;;5.57;3.03;;;;;;;3.53;100.00;95969.19;5050162;28;20387;-78
2024/02/12 05:42:14;;;;;;;4.95;2.60;;;;;;;3.62;100.00;95957.25;5049015;28;20403;-81
2024/02/12 05:44:41;;;;;;;4.00;2.60;;;;;;;3.69;100.00;95961.28;5048556;28;20489;-81
2024/02/12 05:47:08;;;;;;;3.80;2.50;;;;;;;3.76;100.00;95971.59;5048093;28;20478;-82
2024/02/12 05:49:34;;;;;;;5.10;2.80;;;;;;;3.82;100.00;95968.00;5050077;28;20430;-80
2024/02/12 05:52:03;;;;;;;12.75;4.03;;;;;;;3.89;100.00;95976.47;5045472;28;20395;-82
2024/02/12 05:54:29;;;;;;;7.88;3.70;;;;;;;3.96;100.00;95974.47;5048760;28;20403;-82
2024/02/12 05:56:57;;;;;;;8.10;3.60;;;;;;;4.01;100.00;95979.75;5048695;28;20395;-82
2024/02/12 05:59:24;;;;;;;13.35;4.85;;;;;;;4.06;100.00;95982.41;5052594;28;20421;-82
2024/02/12 06:01:51;;;;;;;11.23;4.80;;;;;;;4.13;100.00;95977.03;5054419;28;20521;-81
2024/02/12 06:04:18;;;;;;;9.07;4.22;;;;;;;4.16;100.00;95987.78;5051412;28;20410;-82
2024/02/12 06:06:45;;;;;;;16.98;5.95;;;;;;;4.15;100.00;95982.78;5047446;28;20431;-82
2024/02/12 06:09:12;;;;;;;13.50;5.25;;;;;;;4.12;100.00;95994.56;5046689;28;20406;-83
2024/02/12 06:11:39;;;;;;;11.65;4.50;;;;;;;4.06;100.00;95992.91;5050224;28;20422;-80
2024/02/12 06:14:05;;;;;;;13.05;5.00;;;;;;;4.02;100.00;95998.88;5049916;28;20401;-79
2024/02/12 06:16:31;;;;;;;19.80;6.60;;;;;;;4.00;100.00;96003.56;5048402;28;20399;-82
2024/02/12 06:19:00;;;;;;;16.00;5.80;;;;;;;4.01;100.00;96016.41;5047618;28;20403;-81
2024/02/12 06:21:27;;;;;;;19.67;6.63;;;;;;;4.02;100.00;96012.75;5043511;28;20407;-82
2024/02/12 06:23:54;;;;;;;19.95;7.25;;;;;;;4.11;100.00;96020.97;5040938;28;20395;-85
2024/02/12 06:26:20;;;;;;;23.20;7.60;;;;;;;4.17;100.00;96018.19;5058889;28;20393;-84
2024/02/12 06:28:47;;;;;;;20.20;7.00;;;;;;;4.29;100.00;96020.66;5048686;28;20393;-80
2024/02/12 06:31:13;;;;;;;18.50;6.38;;;;;;;4.37;100.00;96030.72;5047916;28;20402;-81
2024/02/12 06:33:39;;;;;;;17.17;6.25;;;;;;;4.41;100.00;96029.19;5041687;28;20408;-81
2024/02/12 06:36:06;;;;;;;19.83;6.43;;;;;;;4.43;100.00;96036.81;5046042;28;20399;-82
2024/02/12 06:38:33;;;;;;;18.92;6.30;;;;;;;4.45;100.00;96034.72;5049548;28;20398;-81
2024/02/12 06:41:00;;;;;;;14.27;5.85;;;;;;;4.47;100.00;96027.41;5045788;28;20411;-81
2024/02/12 06:43:27;;;;;;;11.43;5.10;;;;;;;4.43;100.00;96028.97;5042368;28;20460;-81
2024/02/12 06:45:53;;;;;;;11.93;5.30;;;;;;;4.40;100.00;96039.91;5051596;28;20486;-80
2024/02/12 06:48:19;;;;;;;16.85;6.00;;;;;;;4.33;100.00;96029.63;5050411;28;20635;-80
2024/02/12 06:50:46;;;;;;;15.07;6.07;;;;;;;4.28;100.00;96032.19;5056087;28;20417;-80
2024/02/12 06:53:13;;;;;;;19.45;6.65;;;;;;;4.21;100.00;96031.59;5049885;28;20410;-80
2024/02/12 06:55:40;;;;;;;18.73;7.05;;;;;;;4.13;100.00;96035.44;5050821;28;20428;-81
2024/02/12 06:58:07;;;;;;;19.33;6.50;;;;;;;4.07;100.00;96036.38;5041985;28;20800;-80
2024/02/12 07:00:35;;;;;;;22.13;6.72;;;;;;;4.04;100.00;96041.31;5054225;28;20401;-80
2024/02/12 07:03:02;;;;;;;21.05;6.65;;;;;;;4.03;100.00;96045.75;5059722;28;20400;-79
2024/02/12 07:05:28;;;;;;;15.70;6.22;;;;;;;4.05;100.00;96053.38;5058216;28;20739;-80
2024/02/12 07:07:56;;;;;;;21.20;6.03;;;;;;;4.07;100.00;96056.53;5048895;28;20411;-79
2024/02/12 07:10:23;;;;;;;19.58;6.15;;;;;;;4.11;100.00;96058.44;5043789;28;20413;-79
2024/02/12 07:12:50;;;;;;;15.15;5.50;;;;;;;4.19;100.00;96068.50;5055168;28;20813;-80
2024/02/12 07:15:17;;;;;;;14.10;5.55;;;;;;;4.29;100.00;96073.84;5057066;28;20402;-82
2024/02/12 07:17:43;;;;;;;13.77;5.33;;;;;;;4.39;100.00;96075.00;5057892;28;20389;-79
2024/02/12 07:20:10;;;;;;;12.80;5.65;;;;;;;4.49;100.00;96083.00;5018122;28;20418;-84
2024/02/12 07:22:36;;;;;;;14.65;5.68;;;;;;;4.54;100.00;96072.56;5050441;28;20455;-79
2024/02/12 07:25:05;;;;;;;14.27;4.90;;;;;;;4.59;100.00;96086.50;5052541;28;21602;-80
2024/02/12 07:27:31;;;;;;;13.20;5.53;;;;;;;4.63;100.00;96084.22;5042824;28;20396;-80
2024/02/12 07:29:59;;;;;;;13.65;4.60;;;;;;;4.70;100.00;96090.06;5048380;28;20440;-80
2024/02/12 07:32:25;;;;;;;15.20;5.60;;;;;;;4.70;100.00;96087.44;5035742;28;20416;-80
2024/02/12 07:34:52;;;;;;;12.15;5.22;;;;;;;4.76;100.00;96088.28;5049786;28;20398;-81
2024/02/12 07:37:18;;;;;;;14.60;5.60;;;;;;;4.83;100.00;96096.75;5041810;28;20387;-82
2024/02/12 07:39:44;;;;;;;14.27;4.88;;;;;;;4.92;100.00;96092.66;5041031;28;20412;-81
2024/02/12 07:42:11;;;;;;;12.90;4.72;;;;;;;4.94;100.00;96083.50;5023490;28;20516;-81
2024/02/12 07:44:39;;;;;;;10.20;4.05;;;;;;;5.04;100.00;96095.91;5030256;28;20402;-81
2024/02/12 07:47:06;;;;;;;9.07;4.72;;;;;;;5.01;100.00;96096.41;5055035;28;20403;-82
2024/02/12 07:49:32;;;;;;;9.05;4.05;;;;;;;5.11;100.00;96095.72;5043659;28;20419;-81
2024/02/12 07:52:02;;;;;;;9.47;4.23;;;;;;;5.17;100.00;96105.22;5041217;28;20399;-80
2024/02/12 07:54:29;;;;;;;7.78;3.90;;;;;;;5.23;100.00;96114.72;5043832;28;20403;-80
2024/02/12 07:56:55;;;;;;;6.00;3.70;;;;;;;5.19;100.00;96111.78;5054434;28;20457;-80
2024/02/12 07:59:21;;;;;;;6.07;3.63;;;;;;;5.31;100.00;96106.41;5051033;28;20518;-81
2024/02/12 08:01:48;;;;;;;8.93;4.10;;;;;;;5.25;100.00;96112.66;5046657;28;20399;-77
2024/02/12 08:04:15;;;;;;;6.20;3.50;;;;;;;5.27;100.00;96115.81;5050664;28;20727;-78
2024/02/12 08:06:41;;;;;;;5.90;3.40;;;;;;;5.27;100.00;96118.41;5055314;28;20457;-80
2024/02/12 08:09:08;;;;;;;7.82;3.30;;;;;;;5.27;100.00;96128.91;5040210;28;20411;-80
2024/02/12 08:11:34;;;;;;;8.52;3.80;;;;;;;5.21;100.00;96130.72;5040374;28;20395;-80
2024/02/12 08:14:00;;;;;;;9.70;3.50;;;;;;;5.25;100.00;96133.63;5040928;28;20895;-80
2024/02/12 08:16:26;;;;;;;7.05;3.28;;;;;;;5.29;100.00;96135.50;5041883;28;20407;-81
2024/02/12 08:18:52;;;;;;;6.78;3.15;;;;;;;5.36;100.00;96137.94;5042490;28;20403;-82
2024/02/12 08:21:20;;;;;;;4.97;2.90;;;;;;;5.40;100.00;96131.97;5044563;28;20482;-83
2024/02/12 08:23:47;;;;;;;5.95;3.10;;;;;;;5.40;100.00;96142.44;5050446;28;20403;-80
2024/02/12 08:26:15;;;;;;;6.15;3.00;;;;;;;5.45;100.00;96136.44;5040992;28;20407;-80
2024/02/12 08:28:41;;;;;;;5.53;2.63;;;;;;;5.55;100.00;96141.78;5054355;28;20430;-81
2024/02/12 08:31:08;;;;;;;4.18;2.60;;;;;;;5.56;100.00;96143.38;5047019;28;20489;-79
2024/02/12 08:33:36;;;;;;;3.90;2.35;;;;;;;5.73;100.00;96146.66;5043930;28;20407;-81
2024/02/12 08:36:04;;;;;;;2.85;2.40;;;;;;;5.74;100.00;96150.88;5036459;28;20406;-79
2024/02/12 08:38:32;;;;;;;6.28;2.40;;;;;;;5.76;100.00;96154.06;5044144;28;20419;-81
2024/02/12 08:41:00;;;;;;;2.50;2.20;;;;;;;5.74;100.00;96157.97;5037734;28;20911;-81
2024/02/12 08:43:26;;;;;;;2.30;2.00;;;;;;;5.85;100.00;96159.63;5041053;28;20403;-81
2024/02/12 08:45:52;;;;;;;2.40;2.00;;;;;;;5.94;100.00;96160.00;5040969;28;20453;-82
2024/02/12 08:48:19;;;;;;;3.07;2.00;;;;;;;5.98;100.00;96168.94;5040486;28;20478;-81
2024/02/12 08:50:48;;;;;;;2.55;2.05;;;;;;;6.04;100.00;96166.09;5032895;28;20496;-81
2024/02/12 08:53:14;;;;;;;3.17;2.20;;;;;;;5.97;100.00;96176.03;5040137;28;20536;-81
2024/02/12 08:55:42;;;;;;;4.47;2.05;;;;;;;5.92;100.00;96175.22;5044592;28;20521;-81
2024/02/12 08:58:10;;;;;;;2.15;1.90;;;;;;;6.04;100.00;96178.44;5041345;28;20395;-80
2024/02/12 09:00:37;;;;;;;2.65;1.80;;;;;;;6.05;100.00;96188.72;5043876;28;20473;-80
2024/02/12 09:03:04;;;;;;;1.90;1.80;;;;;;;6.09;100.00;96184.53;5034661;28;20427;-80
2024/02/12 09:05:31;;;;;;;2.20;1.80;;;;;;;6.23;100.00;96182.28;5038918;28;20429;-81
2024/02/12 09:07:57;;;;;;;2.55;1.80;;;;;;;6.37;100.00;96191.31;5038874;28;20401;-79
2024/02/12 09:10:23;;;;;;;1.65;1.55;;;;;;;6.52;100.00;96191.41;5038257;28;20429;-78
2024/02/12 09:12:51;;;;;;;2.33;1.85;;;;;;;6.66;100.00;96197.00;5040072;28;20391;-80
2024/02/12 09:15:17;;;;;;;1.95;1.70;;;;;;;6.76;100.00;96207.56;5039928;28;20411;-80
2024/02/12 09:17:46;;;;;;;1.92;1.58;;;;;;;6.89;100.00;96196.56;5038164;28;20410;-80
2024/02/12 09:20:14;;;;;;;2.20;1.70;;;;;;;6.96;100.00;96194.50;5042450;28;20425;-81
2024/02/12 09:22:40;;;;;;;2.03;1.70;;;;;;;7.00;100.00;96198.19;5039261;28;20407;-80
2024/02/12 09:25:09;;;;;;;1.70;1.60;;;;;;;7.13;100.00;96199.56;5042747;28;20813;-81
2024/02/12 09:27:36;;;;;;;2.00;1.70;;;;;;;7.11;100.00;96203.50;5053007;28;20394;-79
2024/02/12 09:30:09;;;;;;;3.63;2.10;;;;;;;6.91;100.00;96198.97;5048272;28;20415;-80
2024/02/12 09:32:36;;;;;;;2.25;2.00;;;;;;;7.03;100.00;96207.41;5049362;28;20510;-79
2024/02/12 09:35:03;;;;;;;3.63;2.30;;;;;;;6.89;100.00;96209.72;5043079;28;20400;-80
2024/02/12 09:37:32;;;;;;;3.20;2.13;;;;;;;7.03;100.00;96211.88;5040794;28;20399;-79
2024/02/12 09:39:59;;;;;;;2.72;2.00;;;;;;;6.92;100.00;96218.94;5022278;28;20937;-80
2024/02/12 09:42:28;;;;;;;5.45;2.40;;;;;;;6.97;100.00;96218.97;5033140;28;20410;-80
2024/02/12 09:44:59;;;;;;;4.30;1.90;;;;;;;7.09;100.00;96224.81;5040710;28;20485;-80
2024/02/12 09:47:28;;;;;;;6.87;2.40;;;;;;;7.06;100.00;96225.34;5040534;28;20482;-81
2024/02/12 09:49:55;;;;;;;5.20;2.45;;;;;;;7.15;100.00;96222.97;5031968;28;20452;-80
2024/02/12 09:52:26;;;;;;;4.50;2.17;;;;;;;7.23;100.00;96220.66;5026388;28;20996;-79
2024/02/12 09:54:53;;;;;;;3.92;2.20;;;;;;;7.21;100.00;96227.22;5037513;28;20466;-79
2024/02/12 09:57:19;;;;;;;4.00;2.78;;;;;;;7.21;100.00;96235.13;5037750;28;20482;-80
2024/02/12 09:59:46;;;;;;;4.25;2.22;;;;;;;7.34;100.00;96234.66;5025341;28;20435;-80
2024/02/12 10:02:13;;;;;;;3.53;2.40;;;;;;;7.33;100.00;96233.84;5026160;28;20408;-80
2024/02/12 10:04:41;;;;;;;4.90;2.57;;;;;;;7.47;100.00;96242.06;5023432;28;20401;-80
2024/02/12 10:07:08;;;;;;;2.92;2.22;;;;;;;7.61;100.00;96242.34;5021315;28;20457;-80
2024/02/12 10:09:35;;;;;;;2.35;2.03;;;;;;;7.73;100.00;96250.81;5027063;28;20429;-81
2024/02/12 10:12:05;;;;;;;4.60;2.30;;;;;;;7.70;100.00;96249.50;5031070;28;20655;-81
2024/02/12 10:14:31;;;;;;;3.97;2.58;;;;;;;7.57;100.00;96247.34;5034401;28;20407;-80
2024/02/12 10:17:00;;;;;;;3.10;2.20;;;;;;;7.80;100.00;96251.38;5024685;28;20467;-79
2024/02/12 10:19:27;;;;;;;4.67;2.63;;;;;;;7.49;100.00;96252.34;5035468;28;20415;-79
2024/02/12 10:21:55;;;;;;;3.73;2.37;;;;;;;7.52;100.00;96252.59;5031168;28;20975;-80
2024/02/12 10:24:21;;;;;;;3.03;2.25;;;;;;;7.49;100.00;96255.75;5040966;28;20407;-80
2024/02/12 10:26:52;;;;;;;4.15;2.40;;;;;;;7.57;100.00;96257.09;5032999;28;20406;-80
2024/02/12 10:29:18;;;;;;;2.72;2.20;;;;;;;7.73;100.00;96264.78;5037352;28;20429;-81
2024/02/12 10:31:48;;;;;;;3.33;2.05;;;;;;;7.88;100.00;96266.66;5040945;28;20449;-80
2024/02/12 10:34:17;;;;;;;4.80;2.63;;;;;;;7.81;100.00;96266.13;5041611;28;20463;-80
2024/02/12 10:36:47;;;;;;;3.75;2.40;;;;;;;7.80;100.00;96258.47;5040319;28;20549;-81
2024/02/12 10:39:18;;;;;;;5.13;2.50;;;;;;;7.70;100.00;96260.03;5040098;28;20764;-79
2024/02/12 10:41:50;;;;;;;4.32;2.40;;;;;;;7.66;100.00;96264.25;5035115;28;20766;-80
2024/02/12 10:44:18;;;;;;;2.33;2.03;;;;;;;7.65;100.00;96265.28;5036470;28;20410;-78
2024/02/12 10:46:46;;;;;;;3.25;2.40;;;;;;;7.63;100.00;96269.22;5042252;28;20396;-81
2024/02/12 10:49:14;;;;;;;5.15;2.50;;;;;;;7.51;100.00;96271.31;5041357;28;20442;-79
2024/02/12 10:51:41;;;;;;;3.30;2.20;;;;;;;7.55;100.00;96269.72;5031000;28;20838;-78
2024/02/12 10:54:08;;;;;;;3.08;2.45;;;;;;;7.57;100.00;96260.53;5041505;28;20395;-78
2024/02/12 10:56:37;;;;;;;3.47;2.33;;;;;;;7.68;100.00;96263.97;5041218;28;20438;-80
2024/02/12 10:59:04;;;;;;;4.25;2.30;;;;;;;7.73;100.00;96267.41;5040007;28;20399;-79
2024/02/12 11:01:32;;;;;;;4.97;2.20;;;;;;;7.72;100.00;96262.41;5041558;28;20396;-79
2024/02/12 11:04:00;;;;;;;3.00;2.55;;;;;;;7.83;100.00;96258.72;5041033;28;20399;-80
2024/02/12 11:06:27;;;;;;;3.50;2.53;;;;;;;7.93;100.00;96260.59;5037860;28;20406;-80
2024/02/12 11:08:54;;;;;;;2.30;2.10;;;;;;;8.02;100.00;96259.81;5038891;28;20442;-81
2024/02/12 11:11:27;;;;;;;1.90;1.70;;;;;;;8.13;100.00;96268.50;5037111;28;20457;-80
2024/02/12 11:14:01;;;;;;;3.28;2.13;;;;;;;8.12;100.00;96270.34;5039915;28;20402;-81
2024/02/12 11:16:30;;;;;;;2.33;2.10;;;;;;;8.08;100.00;96266.69;5043498;28;20407;-80
2024/02/12 11:18:58;;;;;;;4.00;2.17;;;;;;;8.05;100.00;96269.03;5042610;28;20395;-79
2024/02/12 11:21:28;;;;;;;2.30;1.90;;;;;;;7.99;100.00;96272.72;5041210;28;20394;-78
2024/02/12 11:24:05;;;;;;;3.35;2.10;;;;;;;7.92;100.00;96272.97;5047967;28;20399;-79
2024/02/12 11:26:36;;;;;;;2.88;2.20;;;;;;;7.86;100.00;96274.03;5043087;28;20438;-78
2024/02/12 11:29:06;;;;;;;2.43;2.00;;;;;;;7.76;100.00;96271.34;5045403;28;20428;-78
2024/02/12 11:31:34;;;;;;;2.17;1.90;;;;;;;7.68;100.00;96272.66;5044621;28;20887;-80
2024/02/12 11:34:00;;;;;;;4.20;2.27;;;;;;;7.62;100.00;96275.53;5056975;28;20448;-81
2024/02/12 11:36:27;;;;;;;3.13;1.80;;;;;;;7.58;100.00;96277.91;5049752;28;20401;-78
2024/02/12 11:38:54;;;;;;;2.45;2.20;;;;;;;7.53;100.00;96280.50;5058825;28;20413;-81
2024/02/12 11:41:20;;;;;;;3.60;2.00;;;;;;;7.53;100.00;96277.09;5036192;28;20462;-80
2024/02/12 11:43:47;;;;;;;2.37;2.17;;;;;;;7.49;100.00;96271.56;5040159;28;20395;-83
2024/02/12 11:46:17;;;;;;;3.10;2.20;;;;;;;7.48;100.00;96277.88;5038992;28;20458;-82